Event Stats: Alabama (MPO)

Last Updated: 2022-09-26 18:21:38

Shows events in the Statmando database that have been held in Alabama and that include an MPO Division, capped at the most recent 1000 events.
Name EventEndDate Tour City FieldSize AvgRating TotalPurse EventRounds Winner WinnerEventRating WinnerCashPerThrow WinnerPrize
Flex for Spring Villa #1 2022-09-25 C Opelika 8 952.3750 0 1 PDGA #104966 1002.0000 0.0000 0
Lauderdale Commissioner's Cup 2022-09-24 C Waterloo 8 946.7500 2,268 2 E. Lucas Pierce 1008.5000 4.7938 465
48th Alabama State Flying Disc Championship 2022-09-18 B Huntsville 19 966.6842 3,030 2 PDGA #137590 1031.5000 0.0000 0
Raleigh's Place Charity Flex Event (CEP Charity - Rated) 2022-09-17 XC Clanton 6 908.0000 0 1 PDGA #117502 937.0000 0.0000 0
Labor Day flex with Rocket City Chain Gang 2022-09-05 C Huntsville 5 931.6000 140 1 Bo McLaughlin 952.0000 1.4286 70
Labor Day flex with Rocket City Chain Gang 2022-09-05 C Huntsville 5 931.6000 140 1 PDGA #92195 952.0000 1.4286 70
Labor Day Weekend Flex with Rocket City Chain Gang (Brahan Spring DGC) 2022-09-04 C Huntsville 2 912.5000 56 1 PDGA #105302 933.0000 1.1667 56
Labor Day Assault 2022-09-03 C Enterprise 8 945.6875 868 2 Gavin Phillips 1000.5000 2.1340 207
15th Annual Southside Kickoff 2022-08-27 C Chickasaw 11 885.2727 0 2 PDGA #67323 999.5000 0.0000 0
Iron Thrown 22 Event 4 2022-08-21 C Calera 6 959.6667 234 1 James Hopkins 1029.0000 2.2400 112
The Magic City Mega Bowl presented by Dynamic Discs + WGE 2022-08-07 A Birmingham 49 967.1586 0 3 Silas Schultz 1043.3333 0.0000 0
MCMB Flex Start C-Tier presented by Latitude 64 - Magnolia Links 2022-08-06 C Mt. Olive 7 939.8571 0 1 PDGA #89427 1019.0000 0.0000 0
MCMB Flex Start C-TIer presented by Latitude 64 - Greg Carter 2022-08-05 C Trussville 2 932.5000 36 1 PDGA #76075 963.0000 0.7347 36
MCMB Flex Start C-Tier presented by Latitude 64 - Humble Tree 2022-08-04 C Trussville 6 941.1667 108 1 PDGA #107531 972.0000 0.9130 42
MCMB Flex Start C-Tier presented by Latitude 64 - Humble Tree 2022-08-04 C Trussville 6 941.1667 108 1 PDGA #144049 972.0000 0.9130 42
Blazin Birdies at Bowers 2022-07-23 C Tuscaloosa 5 939.1000 480 2 PDGA #29933 964.0000 1.5000 150
2022 The Birdie and The Beast 2022-07-16 B Jasper 22 958.5909 4,544 2 Josh Coghill 1020.0000 6.7033 610
Bay City Open 3 2022-07-09 B Mobile 28 958.7818 4,912 2 Benjamin Fulford 1018.0000 6.2366 580
New Hope "FORE"th of July Presented by Disc Crazy 2022-07-04 C New Hope 8 939.2500 0 1 PDGA #137590 989.0000 0.0000 0
Let Freedom Ring at The LZ - Flex Start 2022-07-02 C Enterprise 2 963.5000 46 1 Zach Cole 991.0000 0.9388 46
Boundary Waters Flex Start presented by Dynamic Discs Iron CIty 2022-06-24 C Douglasville 1 963.0000 18 1 PDGA #161532 963.0000 0.3273 18
Iron Thrown 22 Event 3 2022-06-19 C Birmingham 9 949.0000 0 1 PDGA #59809 1022.0000 0.0000 0
Sunday Flex Series - Sizzler at OC 2022-06-12 C Tuscaloosa 9 942.6667 0 1 PDGA #28715 1016.0000 0.0000 0
DGB Tournament Series #1 2022-06-11 C Trussville 13 947.6538 1,460 2 Jared Henderson 1019.0000 2.7174 250
McFarland Park Open 2022-06-05 B Florence 28 951.9818 0 2 Scott Conway 1006.5000 0.0000 0
Battle at The LZ 2022-06-04 C Enterprise 6 956.6667 1,230 2 Jeremy Harvey 993.5000 2.6577 295
2022 Rocket City Blast Presented by InZone KwikStik 2022-05-29 B Huntsville 42 972.1349 15,312 3 Jared Neal 1036.3333 7.1233 1,040
Rocket City Blast - Flex Start Thursday 2022-05-26 C Huntsvilee 4 912.7500 152 1 PDGA #221854 929.0000 1.9000 95
Rocket City Flex At Indian Creek 2022-05-22 C Madison 5 925.8000 140 1 Bo McLaughlin 1004.0000 1.6923 88
2nd Annual Poke Salat Shootout sponsored by Dynamic Discs 2022-05-21 C Arab 10 953.6500 1,160 2 PDGA #17661 1006.5000 2.5053 238
3rd Annual Cinda's Heart for St. Jude Tournament (CEP Charity - Rated) 2022-05-14 XC Guntersville 9 947.1111 1,314 2 Jared Neal 986.0000 3.2024 269
Erdbeere Brawl Presented By IronCityDiscs.com 2022-05-07 C Vinemont 2 953.0000 96 1 PDGA #83791 992.0000 2.1333 96
City of Mobile Champs Flex Start #2: The Admiral at Semmes 2022-05-06 C Semmes 4 973.0000 0 1 PDGA #61977 1003.0000 0.0000 0
City of Mobile Champs Flex Start #1: Municipal Park 2022-05-05 C Mobile 3 969.3333 0 1 PDGA #58357 992.0000 0.0000 0
3nd Annual Mud Bug Birdie Bash 2022-04-23 C Birmingham 12 940.0435 0 2 Bryan Gort 993.0000 0.0000 0
Southside Smackdown 18 Presented by Dynamic Discs 2022-04-23 C Mobile 23 956.2558 6,740 2 Cameron Colglazier 1008.0000 9.9099 1,100
Iron Thrown 22 Flex Event 2 2022-04-17 C Trussville 8 937.8571 0 1 PDGA #17661 1018.0000 0.0000 0
Redstone Rain or Shine 2 Sponsored by Dynamic Discs 2022-04-16 C Huntsville 13 963.6000 1,470 2 Benjamin Page 1029.5000 2.3786 245
Clash on the Hill 2 2022-04-09 C Somerville 6 927.5000 488 2 PDGA #83791 975.0000 1.3950 166
1st Annual WMCP Open 2022-04-02 C Mobile 10 944.9000 0 2 PDGA #132870 963.5000 0.0000 0
Underdog Flex 1 2022-04-01 C Mobile 7 966.0000 161 1 Cameron Colglazier 1037.0000 1.2963 70
39th Annual Spring Fling It 2022-03-20 B Florence 23 952.9552 6,864 3 Cole Neal 1028.3333 4.4074 595
Fairview Freeze 2022-03-05 C Cullman 15 956.4828 1,380 2 James Hopkins 1003.0000 2.3367 229
President's Day flex 2022-02-21 C Huntsville 1 979.0000 33 1 Bo McLaughlin 979.0000 0.7021 33
Iron Thrown 22 Event 1 2022-02-20 C Hoover 19 950.3158 740 1 PDGA #93873 1000.0000 3.1020 152
Iron Thrown 22 Event 1 2022-02-20 C Hoover 19 950.3158 740 1 Christian Camp 1000.0000 3.1020 152
Iron Thrown 22 Event 1 2022-02-20 C Hoover 19 950.3158 740 1 Robbie Crawford 1000.0000 3.1020 152
Frostbite: Defrost 2022-02-13 C Opelika 8 973.6875 768 2 PDGA #96063 1037.5000 1.3193 157
Frostbite Open 2022-02-12 B Opelika 29 970.0517 5,440 2 PDGA #96063 1016.0000 5.4000 648
The Cupid Classic 2022-02-12 C Hartselle 4 930.7500 784 2 PDGA #64848 965.5000 2.3786 245
College Disc Golf - MobTown Throwdown - Team 2022-02-12 XC Mobile 1 0 1 PDGA #139349 0.0000 0
College Disc Golf - MobTown Throwdown - Singles 2022-02-12 XC Mobile 20 901.0500 0 1 PDGA #139349 1004.0000 0.0000 0
Winter Open at Veterans Park 2022-01-22 C Florence 8 955.8750 872 2 Christian Camp 988.0000 1.6126 179
New Hope MLK Day Open 2 2022-01-17 C New Hope 5 961.8000 91 1 Bo McLaughlin 977.0000 1.4894 70
Southside Doubles 2022-01-15 XC Mobile 1 945.5000 0 2 PDGA #70928 945.5000 0.0000 0
19th Annual Fairhope Jubilee - Event 2 2022-01-09 C Fairhope 30 957.1695 3,930 2 Cameron Colglazier 1028.5000 4.9787 468
Throwdown at Bowers - The Finale 2022-01-08 C Tuscaloosa 2 950.5000 76 1 PDGA #28715 991.0000 1.5833 76
JDG Birdie Bash 2021 2021-12-12 C Jasper 13 956.4231 1,182 2 PDGA #83791 1001.5000 2.5366 208
2021 DGB Christmas Classic 2021-12-11 B Trussville 13 967.2692 3,238 2 Jared Henderson 1036.5000 5.6316 535
2021 Cullman Classic 2021-12-05 C Cullman 12 947.6818 1,392 2 PDGA #50153 992.0000 2.7692 252
Redstone Arsenal Open 2021-12-04 XC Huntsville 8 977.3750 790 2 Bo McLaughlin 1024.0000 1.7925 190
Black Friday HangOver 2021-11-27 C Hartselle 9 925.3333 594 2 John Dalton 973.5000 1.2551 123
Dynamic Discs Iron City presents Makin' Room For The Holidays! 2021-11-20 C Birmingham 9 936.3333 770 2 Jared Henderson 976.5000 1.7021 160
Shootout 8 @The Creek 2021-11-13 B Foley 15 963.5333 3,918 2 Cameron Colglazier 1032.0000 5.0459 550
Lauderdale Commissioner’s Cup 2021-11-13 C Waterloo 9 951.1765 1,500 2 Christian Camp 991.5000 2.9333 308
DGB Fall Series 2 2021-11-13 C Mount Olive 5 947.8000 580 2 PDGA #17661 974.0000 1.5000 138
2021 Patriot Hills Open 2021-11-06 C Somerville 5 921.3000 580 2 PDGA #136773 947.0000 1.5083 181
Title Town Classic—Nummer Drei 2021-10-30 B Tuscaloosa 23 958.0000 5,230 2 Cole Neal 1019.0000 6.8000 680
35th Annual Halloween Howler 2021-10-24 C Mobile 29 955.9881 11,740 4 Matt Orum 1063.6667 4.5752 700
Inverness Disc Golf Course 2021-10-23 C Hoover 5 956.0000 580 2 James Hopkins 997.5000 1.6514 180
13 Hole C Fear - The 2nd Coming presented by L64 2021-10-14 C Mt. Olive 4 961.0000 92 1 PDGA #51779 1029.0000 2.0000 58
Albatross At The Eagle 2021-10-10 B Jasper 10 946.6500 2,320 2 Benjamin Page 1000.0000 4.7059 480
2021 National Peanut Festival Disc Golf Classic Sponsored by Dynamic Discs Iron City and Visit Dothan 2021-10-02 B Dothan 8 976.8750 3,344 2 Jeremy Harvey 1014.0000 7.0825 687
IronThrown Disc Golf Tour- Presented by DD Iron City - Finale 2021-09-25 C Trussville 8 968.8125 544 2 PDGA #17661 1020.0000 1.2308 112
2021 Tussle at Taylor Sponsored by Express Oil Change & Tire Engineers 2021-09-18 C Taylor 3 928.6667 444 2 Jason Perdue 997.0000 2.0441 139
47th Alabama State Flying Disc Championship 2021-09-12 B Huntsville 15 974.0333 3,888 2 E. Lucas Pierce 1038.0000 6.5408 641
2021 The Birdie and The Beast 2021-09-04 C Jasper 8 943.1875 830 2 Joey Lutz 1001.5000 1.8280 170
Sunday Meltdown at Bowers 2021-08-22 C Tuscaloosa 8 962.1250 184 1 PDGA #17661 995.0000 1.3191 62
Sunday Meltdown at Bowers 2021-08-22 C Tuscaloosa 8 962.1250 184 1 PDGA #111969 995.0000 1.3191 62
Southside Kickoff 2021-08-21 C Eight Mile 13 963.5000 1,752 2 Cameron Colglazier 1007.5000 3.2258 300
IronThrown Disc Golf Tour- Presented by DD Iron City - Event 6 2021-08-15 C Trussville 12 948.5833 408 1 PDGA #29933 997.0000 2.8462 148
The Sparkman Monster sponsored by Coca-cola bottling 2021-08-01 B Hartselle 24 978.9853 16,734 3 Justin Bunnell 1023.3333 7.9670 1,450
IronThrown Disc Golf Tour- Presented by DD Iron City - Event 5 2021-07-25 C Mt. Olive 11 931.3636 325 1 PDGA #51779 1017.0000 2.8049 115
6th Annual Mid Summer Meltdown 2021-07-18 A Foley 27 980.3077 7,898 2 Matt Orum 1047.0000 8.2883 920
DGB Summer Sizzler 2021-07-17 C Birmingham 10 953.4000 1,160 2 James Cole 1010.5000 2.6966 240
Firecracker Fling 2021-07-03 C Trussville 8 946.7500 910 2 PDGA #17661 990.0000 1.2245 120
McFarland Park Open 2021-06-27 B Florence 22 950.4884 4,972 2 Scott Conway 1022.0000 6.3113 669
The Magic City Mega Bowl sponsored by Dynamic Discs 2021-06-20 A Birmingham 65 969.1204 29,388 3 Joey Lutz 1024.6667 7.6509 1,293
IronThrown Disc Golf Tour- Presented by DD Iron City - Event 4 2021-06-18 C Pinson 4 980.7500 136 1 Matt Dollar 1034.0000 2.2368 85
Good Times at Gardendale presented by Latitude 64 2021-06-17 C Mt. Olive 5 961.2000 114 1 PDGA #87607 972.0000 0.8261 38
Good Times at Gardendale presented by Latitude 64 2021-06-17 C Mt. Olive 5 961.2000 114 1 PDGA #110332 972.0000 0.8261 38
Good Times at Gardendale presented by Latitude 64 2021-06-17 C Mt. Olive 5 961.2000 114 1 PDGA #93873 972.0000 0.8261 38
The Longest Drive Charity Tournament 2021-06-12 C Birmingham 9 939.0000 450 1 PDGA #51779 976.0000 3.0328 185
Throwdown at OC - Flex Series Stop 1 2021-06-05 C Tuscaloosa 9 944.1111 342 1 PDGA #28715 1002.0000 3.1333 141
2021 Rocket City Blast 2021-05-30 B Huntsville 34 969.0412 13,473 3 Bo McLaughlin 1045.0000 6.9315 1,012
The Winfield Open 2021-05-29 C Winfield 11 938.1818 1,276 2 PDGA #107531 979.5000 2.2772 230
Rocket City Blast - Flex Start Friday 2021-05-28 C Huntsville 2 965.0000 96 1 PDGA #123873 998.0000 2.1818 96
IronThrown Disc Golf Tour- Presented by DD Iron City - Event 3 2021-05-23 C Hoover 8 940.0000 272 1 PDGA #29933 988.0000 1.8525 113
Flex Start Friday presented by Latitude 64 - Foley AL - The Preserve 2021-05-21 C Foley 6 976.0000 71 1 Scott Watson 1000.0000 0.0000 0
Poke Salat Shootout 2021-05-15 C Arab 15 947.2414 1,600 2 Benjamin Page 1047.5000 3.0233 260
28th Annual City of Mobile Championships Presented by Dynamic Discs 2021-05-02 A Mobile 52 968.8311 21,285 3 Matt Orum 1040.3333 6.9000 1,035
Fairview Classic 2021-05-01 C Fairview 10 939.9500 960 2 Bo McLaughlin 1008.0000 2.0737 197
City of Mobile championships Flex Start Presented by Full Flight Disc 2021-04-30 C Mobile 8 948.1250 162 1 Jamie Kiep 1024.0000 1.2222 66
IronThrown Disc Golf Tour- Presented by DD Iron City - Event 2 2021-04-25 C Trussville 13 946.1538 442 1 PDGA #133946 1042.0000 3.5238 148
Redstone Rain or Shine sponsored by Dynamic Discs 2021-04-24 C Redstone Arsenal 11 942.8636 1,122 2 Jared Neal 994.5000 1.7350 203
2nd Annual Mud Bug Birdie Bash 2021-04-17 C Birmingham 9 951.4375 2,220 4 PDGA #17661 991.7500 1.8595 225
Southside Smackdown 17 2021-04-17 C Mobile 18 949.2571 0 2 Cameron Colglazier 1041.5000 0.0000 0
Clash on the Hill 2021-04-10 C Somerville 4 943.2500 384 2 PDGA #116419 975.0000 1.0526 120
Raleighs Place/Camp 1:27 Fundraiser 2021-04-10 C Clanton 1 953.0000 0 2 PDGA #160734 953.0000 0.0000 0
Easter Basket Bash presented by Latitude 64 2021-04-03 C Foley 15 967.0000 1,286 2 Michael Gibney 1003.5000 2.0696 238
Prairie Run presented by Latitude 64 2021-04-02 C Foley 7 934.7143 137 1 Adam Halford 962.0000 1.6739 77
Throwdown at Palmore - Flex Start 2021-04-02 C Tuscaloosa 5 911.6000 190 1 PDGA #39262 957.0000 2.2222 120
Lakeview Classic 2021-03-27 C Citronelle 8 986.4375 774 2 PDGA #48554 1016.5000 1.6667 160
IronThrown Disc Golf Tour- Presented by DD Iron City - Event 1 2021-03-27 C Birmingham 7 963.7143 238 1 Hayden Kujala 1042.0000 2.6905 113
38th Annual Spring Fling-It 2021-03-21 B Florence 19 956.1622 3,690 2 PDGA #43206 1001.5000 3.8806 520
DGB Spring Sling 2021-03-13 C Trussville 16 939.2813 1,758 2 Jared Neal 1034.0000 2.8444 256
The Jasper Freeze 2021-03-06 C Jasper 10 935.2000 760 2 PDGA #79241 985.0000 1.7065 157
Mafia Takeover 3 2021-02-28 C Hamilton 13 956.7600 1,378 2 Cole Neal 1012.0000 2.5618 228
Frostbite: Defrost 2021-02-21 C Opelika 9 948.1111 872 2 Matt Dollar 993.0000 1.7049 208
President's Day Flex Start 2021-02-20 C Huntsville 7 944.4286 266 1 PDGA #96566 1022.0000 2.8636 126
Frostbite Open 2021-02-20 C Opelika 22 949.9545 3,652 2 PDGA #113586 998.0000 4.0833 490
Cupid Classic Doubles 2021-02-13 C Hartselle 16 957.6563 1,536 2 PDGA #64745 991.0000 2.3814 231
Southside Winter Slam 2021-02-06 C Chickasaw 4 983.5000 600 2 Matt Orum 1052.0000 2.1739 200
Graham Creek Goodtime presented by Latitude 64 2021-01-30 C Foley 9 945.9412 410 2 Jeremy Harvey 994.0000 1.3084 140
Brush Creek Winter Open 2021-01-24 C Waterloo 17 928.5758 880 2 E. Lucas Pierce 994.0000 1.4063 135
New Hope MLK Day Open 2021-01-18 C New Hope 9 963.2222 211 1 Jared Henderson 1027.0000 1.9767 85
18th Annual Fairhope Jubilee Powered by Prodigy Disc 2021-01-02 C Fairhope 12 984.0833 1,784 2 Matt Orum 1056.0000 3.3196 322
DGB Christmas Classic 2020-12-12 B Trussville 20 960.9250 4,420 2 Jeremy Harvey 1006.5000 5.9278 575
Rocket City Winter Classic 2020-12-12 C Huntsville 7 897.1429 812 2 PDGA #31845 954.0000 1.8131 194
Dirty Turkey and Sexy Birdie by ESD & DGB 2020-11-29 C Birmingham 7 959.9286 780 2 James Hopkins 997.5000 1.6842 160
1st Annual Turkey Tango 2020-11-28 C Chatom 3 970.5000 330 2 PDGA #123338 988.0000 1.0198 103
The Lion's Den 2020-11-21 B Hanceville 22 964.7143 3,568 2 Jared Neal 1018.0000 4.5189 479
DGB Fall Series #2 2020-11-15 C Birmingham 7 943.9286 670 2 Jared Henderson 978.0000 1.7010 165
7th Annual Shootout @ The Creek 2020-11-14 B Foley 6 994.8333 1,810 2 Matt Orum 1028.5000 4.6237 430
Title Town Classic - The Rematch - Sponsored by Dynamic Discs 2020-11-07 C Tuscaloosa 20 942.6750 3,670 2 Jared Neal 1019.5000 5.3542 514
The Wicked Woodpecker Presented By Monkey Grip Dyes 2020-10-31 C Rainbow City 7 938.5714 810 2 PDGA #47296 989.0000 2.0000 200
The Haunting at Lakeside 2020-10-31 C Florence 10 933.9000 810 2 E. Lucas Pierce 1022.5000 1.7442 150
Eat Sleep Disc Autumn Open - George Ward 2020-10-10 C Pinson 8 954.7333 1,280 2 PDGA #51779 976.0000 2.4000 240
DGB Fall Mini 1 2020-10-04 C Birmingham 7 941.8571 672 2 PDGA #29694 969.5000 1.3675 160
InZone Disc Golf Presents: The Tour de Rocket City Finale 2020-09-13 B Huntsville 19 973.5614 6,741 3 Logan Bowers 1012.3333 4.1382 629
Full Flight Flex Start - UAH 2020-09-11 C Huntsville 6 979.5000 168 1 John Dalton 1041.0000 1.5686 80
Southside Smackdown 16 Powered by Prodigy 2020-08-29 C Eight Mile 12 970.8333 4,700 2 Matt Orum 1040.0000 11.2360 1,000
The 46th Annual Alabama State Flying Disc Championship 2020-08-29 C Jasper 17 939.2941 2,388 2 PDGA #93873 990.0000 3.7292 358
Bay City Open 2 2020-08-08 B Mobile 20 959.3590 2,980 2 Cameron Colglazier 1049.5000 4.2553 400
InZone Disc Golf Presents: The Tour de Rocket City Stage 3 at Mastin Lake/UAH 2020-08-08 C Huntsville 11 951.8182 1,070 2 PDGA #43206 995.5000 1.8738 193
Sparkman Monster 2020-08-02 B Hartselle 29 968.4310 6,412 2 Eagle McMahon 1058.0000 6.8829 764
2020 Rocket City Blast 2020-07-26 B Huntsville 25 972.7917 9,045 3 Logan Bowers 1022.6667 5.0604 754
Rocket City Blast Flex Start Friday presented by Latitude 64 - Brahan Springs 2020-07-24 C Huntsville 11 950.3333 168 1 PDGA #64745 1043.0000 1.6750 67
Mid Summer Meltdown V Sponsored by Latitude 64 2020-07-19 B Foley 10 963.9333 3,855 3 PDGA #53658 991.6667 2.8533 525
37th Annual Spring Fling - It 2020-07-18 C Florence 11 955.7273 1,476 2 PDGA #73879 995.5000 2.9775 265
InZone Disc Golf Presents: The Tour de Rocket City Stage 2 at Brahan Springs Park 2020-07-11 C Huntsville 9 955.1111 880 2 Bo McLaughlin 1005.5000 2.0225 180
The Goat 2020-07-11 C Fairhope 15 942.7333 1,440 2 PDGA #58357 1007.5000 2.2642 240
Magic City Mega Bowl sponsored by Dynamic Discs 2020-06-28 B Birmingham 38 966.8509 15,693 3 Cameron Colglazier 1017.6667 6.8323 1,100
MCMB Flex Start Saturday presented by Latitude 64 - Greg Carter 2020-06-27 C Trussville 7 950.8333 130 1 PDGA #113586 998.0000 1.3333 60
MCMB Flex Start Fun presented by Latitude 64 - Gardendale 2020-06-25 C Mt Olive 3 1009.3333 54 1 PDGA #113586 1037.0000 0.8500 34
InZone Disc Golf Presents: The Tour de Rocket City Stage 1 at Indian Creek 2020-06-13 C Huntsville 13 965.6667 1,146 2 Benjamin Page 1019.0000 2.0500 205
27th Annual City of Mobile Championships presented by Dynamic Discs 2020-06-07 A Mobile 31 968.1829 14,391 3 Cameron Colglazier 1029.3333 7.2289 1,200
Frostbite Open 2020-03-07 C Opelika 33 961.6970 5,826 2 Will Schusterick 1034.0000 5.2846 650
Mafia Takeover 2 2020-03-01 C Hamilton 13 948.3846 1,250 2 PDGA #107531 1019.0000 2.3034 205
The Jasper Freeze 2020 2020-02-22 C Jasper 23 944.9783 1,400 2 Benjamin Page 1009.0000 2.2727 200
President's Day Open at Indian Creek 2020-02-17 C Huntsville 4 962.0000 80 1 PDGA #73879 989.0000 0.8929 50
Cupid Classic 2020-02-15 C Hartselle 16 941.5313 1,560 2 Benjamin Page 984.0000 2.4742 240
Southside Winter Slam Driven By Innova 2020-02-08 C Semmes 5 976.8000 800 2 Cameron Colglazier 1020.0000 2.2727 250
The 17th Annual Fairhope Jubilee Powered by Prodigy Disc 2020-01-04 C Fairhope 20 976.5000 2,522 2 Cameron Colglazier 1073.0000 3.6458 350
Azalea City Classic II 2019-12-14 C Mobile 11 974.5000 1,670 2 Adam Halford 1006.0000 3.1373 320
Christmas at the Creek 2019-12-08 C Huntsville 9 969.8889 860 2 Bo McLaughlin 1021.0000 1.7308 180
DGB Christmas Classic Driven By Innova 2019-12-07 B Trussville 14 972.1071 3,330 2 Cole Neal 1030.5000 5.9783 550
6th Annual Shootout @ The Creek 2019-11-23 B Foley 13 961.5385 2,820 2 Cameron Colglazier 1035.5000 4.3868 465
DGB Fall Run #3 2019-11-17 C Birmingham 8 954.8125 846 2 PDGA #51779 995.5000 1.8511 174
The 4th Annual Joe Wheeler Fall Shootout 2019-11-03 C Rogersville 18 946.1143 2,350 2 E. Lucas Pierce 1014.0000 3.4574 325
Title Town Classic 2019-11-02 C Tuscaloosa 11 978.8636 1,746 2 Cameron Colglazier 1034.0000 3.1500 315
DGB Fall Run Mini 2 2019-10-20 C Hoover 6 950.5833 630 2 PDGA #55516 1025.5000 1.5306 150
The Birdie and the Beast 2019-10-06 C Jasper 5 963.4000 480 2 Benjamin Page 990.5000 1.5625 150
2019 National Peanut Festival Disc Golf Classic sponsored by Dynamic Discs, GDG$5k/$10k event 2019-10-05 B Dothan 11 970.4091 3,860 2 Alden Harris 1038.5000 7.5543 695
The Fall Run 1 of 3 2019-09-28 C Trussville 6 957.3333 570 2 PDGA #55516 998.0000 1.5000 135
45th Annual Alabama Flying Disc Championships 2019-09-22 B Cullman 18 943.9412 4,092 2 Jared Neal 1001.5000 5.0708 573
The 2019 Foothills Festival Fling 2019-09-07 C Jasper 6 914.1667 420 2 PDGA #81330 969.0000 1.2500 135
The Dog Days of Disc Golf at Beaver Lake 2019-08-31 C Fort Rucker 4 943.6250 384 2 PDGA #53658 989.0000 1.2000 120
The Magic City Mega Bowl Driven By Innova 2019-08-25 A Birmingham 29 976.7093 13,668 3 Logan Bowers 1049.0000 7.3810 1,085
Mega Bowl Saturday Flex Start 2019-08-24 C Trussville 4 917.5000 70 1 PDGA #53658 997.0000 0.9574 45
Mega Bowl Thursday Flex Start 2019-08-22 C Gardendale 3 987.6667 54 1 PDGA #55510 1001.0000 0.7907 34
Summer Breeze at Mastin Lake 2019-08-10 C Huntsville 14 930.0370 1,360 2 Benjamin Page 1036.0000 2.6163 225
The Sparky Man 2019-07-27 C Hartselle 5 973.6250 480 2 E. Lucas Pierce 994.0000 1.6304 150
4th Annual Mid Summer Meltdown 2019-07-21 B Foley 6 968.6667 3,600 3 Cameron Colglazier 1003.6667 3.9759 660
Under the lights doubles 2019-07-20 C Hartselle 15 928.7667 1,440 2 PDGA #42740 973.0000 2.0202 200
McFarland Park Open 2019-07-06 C Florence 9 971.1875 1,270 2 Jared Neal 1010.5000 2.6263 260
Bay City Open 2019-06-23 B Mobile 10 961.5926 3,021 3 Cameron Messerschmidt 1034.6667 3.2819 489
The Beast and the Birdie 2019-06-22 C Jasper 8 943.0625 780 2 PDGA #55516 972.5000 1.5500 155
Under the lights 2019-06-01 C Hartselle 16 916.0323 1,542 2 PDGA #60634 997.0000 2.5556 230
2019 Rocket City Blast 2019-05-26 B Huntsville 23 953.2537 7,533 3 Logan Bowers 1027.0000 4.0373 650
A Day for Gracie 2019-05-05 C Hartselle 6 946.0000 240 2 PDGA #57550 993.0000 0.6186 60
Live Oak Classic powered by Prodigy 2019-05-04 C Stockton 3 969.0000 320 2 PDGA #67323 980.5000 1.0101 100
Full Circle Disc Golf Classic Presented by Eat Sleep Disc 2019-04-20 C Birmingham 9 933.3333 1,034 2 PDGA #81330 976.5000 2.5263 240
36th Annual Spring Fling-It 2019-04-14 C Florence 12 949.1143 4,050 3 Benjamin Page 1002.0000 2.8571 500
1st Annual Mud Bug Birdie Bash 2019-04-06 C Birmingham 5 950.0000 780 3 PDGA #51779 967.6667 1.2245 120
Fling 4 Wings Driven by Innova 2019-03-30 C Mobile 5 981.5000 610 2 PDGA #55724 994.5000 1.3725 140
26th Annual City Of Mobile Championship Presented by Prodigy Disc 2019-03-24 A Mobile 47 972.4043 21,954 3 Cameron Colglazier 1046.3333 9.3333 1,400
Cooper Green 2019-03-16 B Pinson 21 963.0500 5,050 2 Bryson James 1017.5000 5.8772 670
Frostbite Open 2019-03-16 C Opelika 27 957.6111 5,488 2 Jared Neal 1021.0000 5.6746 715
1st annual Sparkman Monster Open 2019-03-10 C Hartselle 14 956.2143 1,566 2 Jared Neal 1022.5000 2.2314 270
Mafia Takeover 2019-03-03 C Hamilton 18 922.5758 1,732 2 Josh Coghill 963.0000 2.3301 240
3rd Annual Cupid Classic 2019-02-24 C Hartselle 22 944.7500 2,206 2 PDGA #87080 985.0000 2.6190 275
The Jasper Freeze 2019 2019-02-16 C Jasper 10 928.0500 570 2 Benjamin Page 983.5000 1.2778 115
Shoals Frisbee Club Winter Classic 2019-01-26 C Florence 19 943.6316 1,670 2 PDGA #97880 1006.0000 2.5000 225
The 16th Annual Fairhope Jubilee Presented by Prodigy Disc 2019-01-05 C Fairhope 17 978.7941 2,210 2 Matt Orum 1054.5000 3.3673 330
DGB Christmas Classic 2018-12-15 B Birmingham 24 950.1875 4,280 2 Joey Lutz 1041.5000 6.1667 555
Azalea City Classic 2018-12-02 C Mobile 12 975.8750 1,512 2 Cameron Colglazier 1057.5000 3.0222 272
The Sparkman Monster 2018-12-02 C Hartselle 7 942.0714 898 2 PDGA #31845 979.0000 1.4388 200
Iron Bowl Aftermath sponsored by Westside Discs 2018-11-25 C Foley 5 955.1000 460 2 Jeremy Harvey 1010.5000 1.1458 110
44th Annual Alabama State Flying Disc Championships 2018-11-18 C Madison 5 975.5000 340 2 Benjamin Page 1015.5000 1.1735 115
3rd Annual Joe Wheeler Fall Shootout 2018-10-28 B Rogersville 2 1000.0000 855 3 Benjamin Page 1023.0000 2.0357 285
DGB Fall Series - Event #2 2018-10-21 C Birmingham 9 943.0588 700 2 PDGA #55516 989.5000 1.2174 140
5th Annual Shootout @ Graham Creek Powered by Prodigy 2018-10-13 B Foley 12 971.4783 2,350 2 Cameron Colglazier 1023.5000 3.6283 410
National Peanut Festival Disc Golf Classic, GDG 5k/10 Event 2018-10-06 B Dothan 11 959.0000 3,830 2 PDGA #53658 1009.5000 7.2917 700
Tour de Rocket City Finale - Presented by Micah Rigoni Insurance 2018-10-06 B Huntsville 8 960.5000 1,520 2 Jared Neal 1009.0000 3.1959 310
Tour de Rocket City - Stage 4 at UAH 2018-09-08 C Huntsville 10 943.5000 760 2 PDGA #41858 988.0000 1.3717 155
Back to School Bash 2018-09-08 C Mobile 2 957.5000 20 2 PDGA #24508 962.0000 0.0855 10
Tour de Rocket City - Stage 3 at Brahan Springs 2018-07-28 C Huntsville 16 913.1250 1,228 2 Benjamin Page 997.5000 2.2727 200
RCCG Presents: Free as a Breeze 2018-07-22 C Huntsville 5 894.4000 0 2 PDGA #31845 943.0000 0.0000 0
Mid Summer Meltdown No. 3 Sponsored by Latitude 64 2018-07-21 B Foley 8 974.8125 1,600 2 Cameron Colglazier 1042.0000 2.9730 330
W. C. Handy Tournament 2018-07-21 C Florence 6 938.4167 672 2 Benjamin Page 977.5000 2.0388 210
CDC Fairview Frenzy 2018-06-23 C Fairview 3 899.8333 360 2 PDGA #61705 937.0000 1.0463 113
Magic City Mega Bowl sponsored by Dynamic Discs 2018-06-17 A Birmingham 31 973.2326 12,924 3 Cameron Colglazier 1028.6667 6.8212 1,030
Magic City Mega Bowl Flex Start 2018-06-16 C Trussville 4 939.7500 105 1 PDGA #81330 971.0000 1.3542 65
Mega Bowl Flex Start Friday presented by Latitude 64 2018-06-15 C Gardendale 4 988.2500 72 1 Matt Dollar 1031.0000 1.1250 45
Alpha Omega Series. Event 3 2018-06-09 C Mobile 5 954.7000 450 2 PDGA #67323 999.5000 1.4737 140
2018 Rocket City Blast Sponsored by Dynamic Discs 2018-05-27 B Huntsville 25 955.4043 10,960 4 Logan Bowers 1012.2500 3.7374 740
Rocket City Blast Flex Start Friday presented by Latitude 64 2018-05-25 C Huntsville 1 974.0000 20 1 Jared Neal 974.0000 0.4545 20
The Birdie and the Beast 2018-05-20 C Jasper 8 943.5625 700 2 PDGA #64848 970.5000 1.4000 140
Downtown Throwdown 4 Sponsored by Dynamic Discs 2018-05-19 C Jasper 14 939.7143 1,196 2 Joey Lutz 1010.5000 2.3529 200
Mega Warm-Up: Inverness + WGE 2018-05-12 C Birmingham 8 935.8000 850 2 PDGA #31845 995.5000 1.5766 175
Alpha Omega Series. Event 2 2018-04-28 C Mobile 5 952.0000 450 2 Christopher Downey 997.0000 1.4737 140
2018 The Heritage Header "Deuce or Die" 2018-04-28 C Cullman 6 946.0000 610 2 PDGA #19238 1015.0000 1.6860 145
Tour de Rocket City - Stage 2 at Indian Creek 2018-04-21 C Huntsville 15 942.5667 1,150 2 PDGA #86349 995.0000 1.7925 190
35th Annual Spring Fling - It 2018-04-15 B Florence 23 937.8043 4,960 2 PDGA #55451 985.0000 6.4356 650
Cooper Green 2018-04-07 B Birmingham 7 966.2143 1,680 2 PDGA #56368 998.5000 3.8384 380
Alpha Omega Series Event 1 2018-03-31 C Prichard 7 964.7857 632 2 PDGA #84321 990.0000 1.4000 133
25th Annual City of Mobile Championship presented by Dynamic Discs 2018-03-11 A Mobile 50 972.4867 24,300 3 Cameron Todd 1037.3333 9.8684 1,500
Frostbite Open 2018-03-03 C Opelika 19 953.5000 2,770 2 Jared Neal 1009.5000 3.5039 445
A Day For Maddy 2018-03-03 C Hartselle 10 930.2000 0 2 PDGA #57550 980.0000 0.0000 0
Tour de Rocket City - Stage 1 at Mastin Lake 2018-02-24 C Huntsville 19 923.2703 1,310 2 Benjamin Page 1008.0000 2.2222 200
Fling for Wings 3 Presented by Innova 2018-02-17 C Semmes 16 965.3667 1,536 2 PDGA #47799 998.0000 2.0859 267
Frozen Woodpecker Smash 2018-02-17 C Rainbow City 13 943.7600 750 2 Benjamin Page 998.0000 1.5625 150
Jasper Freeze 2018 2018-02-10 C Jasper 5 928.0000 320 2 PDGA #24508 977.0000 1.1364 100
Sparkman Parks 2nd Annual CUPID Classic 2018-02-04 B Hartselle 9 962.4444 2,500 2 Brandon Brown 1010.5000 4.5263 430
Deer RUN Disc Golf Classic 2018-01-13 C Moulton 9 929.9375 1,130 2 Benjamin Page 962.5000 2.1186 250
The 15th Annual Fairhope Jubilee Presented by Prodigy Disc 2018-01-06 C Fairhope 28 965.5536 3,612 2 PDGA #53658 1025.5000 4.0566 430
DGB Christmas Classic 2017-12-09 B Birmingham 17 947.3529 3,074 2 Chris Dickerson 1025.0000 6.6667 460
2nd Annual Iron Bowl Aftermath presented by Dynamic Discs & Prodigy Discs 2017-11-26 C Daphne 17 971.2059 1,370 2 Cameron Colglazier 1017.0000 2.2283 205
The Return Of LeMaster 2017-11-19 C Trussville 8 936.8750 590 2 PDGA #17661 1002.5000 1.3725 140
DGB Fall Series - Event #3 2017-11-18 C Birmingham 9 948.3889 720 2 Mike Young 994.5000 1.2621 130
4X Shootout @ Graham Creek 2017-11-12 B Foley 18 970.5741 13,245 4 Cameron Colglazier 1039.0000 6.3953 1,100
2nd Annual Joe Wheeler Fall Shootout 2017-11-11 C Rogersville 15 941.7586 1,870 2 Benjamin Page 1008.5000 3.2632 310
43rd annual Alabama State Flying Disc Championship 2017-11-05 B Huntsville 14 956.7857 2,432 2 Jared Neal 999.5000 3.5398 400
Title Town Monster Mash presented by Loosa Brews 2017-10-29 B Tuscaloosa 13 948.2368 4,815 3 PDGA #53658 1007.6667 3.9506 640
The Sexy Birdie! 2017-10-14 C Birmingham 11 937.0909 1,016 2 PDGA #86349 973.0000 1.6949 200
Fairview Classic 2017-09-23 C Fairview 6 941.7500 480 2 PDGA #86349 1001.0000 1.3068 115
DGB Fall Series - Event #2 2017-09-16 C Birmingham 12 951.7917 610 2 PDGA #61959 1001.0000 0.0000 0
DGB Fall Series - Event #1 2017-08-19 C Birmingham 7 945.5000 530 2 PDGA #62337 970.0000 1.2755 125
Sparkmans Under the Lights 2017-08-05 C Hartselle 5 949.8000 0 2 PDGA #72341 989.0000 0.0000 0
Meltdown 2.0 2017-07-22 C Foley 15 940.3333 1,950 2 PDGA #53658 985.5000 3.1633 310
W. C. HANDY Tournament 2017-07-22 C Florence 8 933.6250 1,430 2 Jared Neal 993.5000 3.5052 340
T-Towns Summer Sizzler 2017-07-15 C Tuscaloosa 5 933.1111 750 2 PDGA #53658 975.0000 2.2959 225
2017 Free as a Breeze 2017-07-01 C Huntsville 10 938.9500 0 2 PDGA #69644 979.0000 0.0000 0
Magic City Mega Bowl sponsored by Dynamic Discs 2017-06-18 B Birmingham 38 949.2018 13,746 3 Paul Ulibarri 1026.3333 6.2338 960
Bay Town Classic 2017-06-10 C Semmes 18 967.6944 2,330 2 Matt Orum 1063.5000 3.3505 325
Border Battle Part 2 presented by Prodigy Disc 2017-06-04 C Heflin 3 914.8333 300 2 Bryson James 961.5000 0.9709 100
2017 Rocket City Blast 2017-05-28 B Huntsville 18 969.2083 7,740 4 Gregg Barsby 1023.0000 3.0052 580
Grip-N-Rip Presents The Birdie and The Beast 2017-05-07 C Jasper 10 932.2500 950 2 Benjamin Page 986.5000 2.0103 195
24th Annual City of Mobile Championship sponsored by Dynamic Disc 2017-05-07 B Mobile 16 948.6458 4,650 3 Cameron Colglazier 1021.0000 2.9762 500
Cukorakko Spring 2017 2017-05-07 C Steele 6 891.1667 110 2 PDGA #64284 900.5000 0.0000 0
Downtown Throwdown Part 3 2017-05-06 C Jasper 11 925.5238 1,600 2 Joey Lutz 1005.5000 2.9775 265
34th Annual Spring Fling It 2017-04-09 B Florence 24 948.0000 7,986 3 PDGA #67474 1002.3333 4.7945 700
Bottoms Up at Boogie Bottoms 2017-03-26 B Cleveland 33 955.5918 7,614 3 Matt Dollar 1021.0000 3.9597 590
1st Annual City of Foley Championships 2017-03-18 C Foley 10 952.5000 1,300 2 Michael Florey 995.5000 2.3762 240
The Open at Cooper Green 2017-03-11 B Birmingham 18 964.0278 3,200 2 Bryson James 1010.5000 4.2553 400
Grip-N-Rip Presents Hyzers and Hoodies 2017-03-04 C Jasper 6 932.0833 610 2 PDGA #72341 967.0000 1.7273 190
Fling for Wings Presented by Prodigy 2017-03-04 C Mobile 14 957.5714 1,010 2 Christopher Downey 1027.0000 1.8878 185
Sparkman Park Challenge presented by Latitude 64 2017-02-12 C Hartselle 9 929.0588 850 2 PDGA #54910 984.5000 1.9231 175
HouckDesign Circular Skies Over Semmes Grand Opening Tournament 2017-01-21 C Semmes 12 961.7083 1,550 2 PDGA #70928 987.5000 2.0732 255
Frostbite Open 2017-01-21 C Opelika 12 968.0000 1,101 2 Will Schusterick 1030.0000 2.5385 198
14th Annual Fairhope Jubilee 2017-01-07 C Fairhope 28 950.3273 2,800 2 PDGA #42875 1007.5000 3.0973 350
Grip-N-Rip Year End Blowout 2016-12-18 C Jasper 6 940.9167 800 2 Josh Coghill 962.5000 1.7925 190
DGB Christmas Classic 2016-12-10 B Birmingham 18 947.8611 3,192 2 Jared Neal 1003.5000 5.1613 480
Iron Bowl Aftermath 2016-11-27 C Daphne 10 947.4500 1,130 2 PDGA #48554 1002.5000 1.4894 140
Thanksgiving Shootout 2016-11-20 C Hartselle 16 953.8750 0 2 PDGA #42875 1028.5000 0.0000 0
DGB All In The Fall Series Event #3 2016-11-19 C Birmingham 6 925.5833 0 2 PDGA #35413 961.0000 0.0000 0
3rd Annual Shootout @ Graham Creek 2016-11-19 C Foley 14 946.2857 1,400 2 Cameron Todd 987.0000 2.1698 230
42nd Annual Alabama State Flying Disc Championship 2016-10-30 B Huntsville 13 947.6800 2,550 2 PDGA #54910 1004.0000 3.5981 385
Disc'n For Devan 2016-10-29 C Hamilton 4 936.3750 370 2 Josh Coghill 964.0000 1.4362 135
DGB All In The Fall Series - Event #2 2016-10-23 C Birmingham 9 904.0000 690 2 Mike Young 952.0000 1.3861 140
Cukorakko Music Festival Disc Golf Tournament Presented by Eat Sleep Disc.com 2016-10-09 C Steele 3 907.8333 280 2 PDGA #61705 916.5000 1.2389 140
DGB All In The Fall Series - Event #1 2016-09-24 C Trussville 4 928.1250 320 2 PDGA #55616 954.5000 1.0204 100
CDC's Scorching Chains 2016-08-27 C Cullman 9 904.0556 862 2 PDGA #82334 962.5000 1.8830 177
Mid Summer Meltdown 2016-07-23 C Foley 12 942.2500 1,280 2 PDGA #67323 1014.0000 2.3711 230
The Independence Open at Foley's Graham Creek 2016-07-02 C Foley 7 946.7857 860 2 Christopher Downey 962.0000 1.3861 140
Magic City Mega Bowl 2016-06-19 B Birmingham 40 952.3109 19,289 4 PDGA #16304 1022.0000 6.6667 1,200
2016 Rocket City Blast 2016-05-29 B Huntsville 18 960.1690 9,204 4 Chris Dickerson 1029.7500 3.3065 615
Birdie and the Beast 2016-05-15 C Jasper 4 912.0000 240 2 PDGA #61705 956.0000 1.1538 120
GnR's DownTown ThrowDown - Part II + WGE 2016-05-14 C Jasper 9 938.0000 1,312 2 Benjamin Page 990.5000 2.3894 270
33rd Annual Spring Fling It 2016-04-16 C Florence 11 920.5000 2,068 2 PDGA #58340 956.5000 3.8991 425
Sun King/Discraft present Magic City Spring Showdown 2016-04-16 C Birmingham 4 940.3750 320 2 Mike Young 990.5000 1.0204 100
23rd Annual City of Mobile Championships sponsored by Dynamic Discs 2016-04-03 B Mobile 18 953.9571 7,292 4 Matt Orum 1038.5000 3.1316 595
Kinetic Open Series #2 (Hamilton, AL) 2016-04-02 C Hamilton 7 930.2143 900 2 Hunter Brasel 990.0000 1.9907 215
USA Fundraiser 2016-03-26 C Mobile 6 958.6667 540 2 Christopher Downey 998.5000 1.7895 170
Team Catfish presents: Bottom Feeders Takeover at Boogie Bottoms II 2016-03-20 B Cleveland 40 950.8803 11,070 3 Paul Ulibarri 1030.0000 5.1899 820
The Southeastern Championship 2016-03-13 C Foley 9 933.2000 2,820 4 PDGA #40740 983.3333 2.1714 380
Eat Sleep Disc Presents Throwback to Cooper Green! 2016-03-05 C Birmingham 24 936.9375 2,060 2 Matt Versola 1003.0000 2.5510 250
Beanies and Frisbees 2016 2016-02-20 C Jasper 13 901.9231 990 2 PDGA #17661 1001.5000 2.0690 180
The Sexy Birdie 2016-02-13 C Pinson 13 927.5128 2,340 4 Mike Young 978.0000 1.3333 160
Frost Bite Open 2016-01-30 C Opelika 10 943.5000 1,200 2 Matt Dollar 990.5000 2.1176 216
13th Annual Fairhope Jubilee 2016-01-02 C Fairhope 18 948.2500 1,630 2 Logan Weiss 1012.5000 2.4020 245
DGB Christmas Classic 2015-12-12 B Birmingham 23 936.4783 4,068 2 PDGA #17661 1007.0000 5.3431 545
Black Friday #OptOutside 2015-11-27 C Huntsville 9 934.6667 760 2 Benjamin Page 969.5000 1.9892 185
EAT SLEEP DISC Sunday Series #4 (FINALS) - Longshot @ Lakeview 2015-11-22 C Lakeview 16 953.1875 2,024 2 Matt Dollar 1009.0000 3.8384 380
First Shot at The Eagle 2015-11-21 C Jasper 9 938.8333 850 2 PDGA #43412 956.5000 1.5351 175
Alabama Disc Golf Championships 2015-10-31 B Hanceville 12 942.5000 2,810 2 Matt Dollar 1013.5000 4.8113 510
41st Alabama State Flying Disc Championship 2015-10-25 B Huntsville 5 964.2000 1,740 2 Logan Bowers 983.5000 3.6283 410
EAT SLEEP DISC Sunday Series #3 - B'ham Slam 2015-10-18 C Birmingham 13 924.1154 1,180 2 PDGA #17661 969.5000 2.0619 200
Cukorakko Disc Golf - $500 ADDED! 2015-10-04 C Steele 9 945.8333 1,780 2 PDGA #17661 1026.5000 3.5714 325
EAT SLEEP DISC Sunday Series #2 - Hanceville Huck 2015-09-27 C Hanceville 9 923.0556 720 2 PDGA #17661 966.0000 1.7647 180
Southside Slither 2015-09-12 C Huntsville 9 938.4444 730 2 Mike Young 968.0000 1.6854 150
CDC Bag Tag Challenge at Wallace State 2015-09-06 C Hanceville 5 944.2000 510 2 PDGA #54885 998.0000 1.3431 137
EAT SLEEP DISC Sunday Series #1 - Trussville Toss 2015-08-30 C Trussville 13 922.0000 1,180 2 PDGA #54885 979.5000 2.0619 200
DGCA Quarterly Club Challenge - Event #3 2015-07-25 C Hanceville 15 911.6897 512 2 PDGA #47296 953.5000 0.6637 75
GnR Presents:EASI Throwdown Showdown Fundraiser 2015-07-18 C Jasper 15 910.4667 1,450 2 PDGA #60440 971.5000 2.5294 215
2015 Free As A Breeze 2015-07-04 C Huntsville 9 913.4444 0 2 PDGA #58817 954.5000 0.0000 0
GnR's Downtown Throwdown 2015-06-20 C Jasper 16 920.1935 2,136 2 James Cole 960.0000 3.1373 320
Magic City Mega Bowl 2015-06-14 B Birmingham, AL 45 951.1259 26,749 4 Chris Dickerson 1032.0000 6.7045 1,180
Lake Point Open 2015 2015-06-06 C Heflin 15 930.4000 2,138 2 Matt Dollar 1003.0000 3.3333 320
DGCA Quarterly Club Challenge - Event #2 2015-05-30 C Jasper 6 892.4167 0 2 PDGA #67148 916.0000 0.0000 0
2015 Rocket City Blast 2015-05-24 B Huntsville 13 960.6410 5,865 3 Zach Melton 1022.0000 3.6364 600
Eat Sleep Disc presents : The Sunday C-Tier Series, Round 1 Lake View 2015-05-17 C Lake View 9 927.7647 1,976 2 PDGA #16348 955.0000 3.4314 350
EAT SLEEP DISC PRESENTS Number SIX & Final 2015-05-09 C Birmingham 15 929.9333 1,700 2 Kevin McCoy 1004.5000 2.6316 250
Cukorakko - The Journey 2015-05-03 B Steele 10 925.8571 4,875 3 PDGA #25560 1000.0000 5.0336 750
DGB's Sling Into Spring 2015-04-18 C Birmingham 9 922.0000 690 2 PDGA #72341 973.0000 1.1111 140
EAT SLEEP DISC PRESENTS Number FIVE 2015-04-11 C Huntsville 20 945.2000 2,462 2 Simon Lizotte 1020.0000 3.2000 320
GnR Invades Aggieland 2015-04-04 C Hamilton 11 926.3636 1,264 2 Mike Young 969.5000 2.3438 225
32nd Annual Spring Fling-It 2015-03-22 C Florence 7 946.5263 1,680 3 PDGA #24843 984.6667 2.2050 355
Team Catfish presents: Bottom Feeders Takeover at Boogie Bottoms (Formerly AMG DG) 2015-03-15 B Cleveland 34 956.3168 11,577 3 Logan Bowers 1021.0000 5.4276 825
GnR's Bag Tag Rendezvous 2015-03-08 C Jasper 4 905.1250 300 2 PDGA #54885 978.5000 1.0674 95
EAT SLEEP DISC PRESENTS Number FOUR 2015-03-07 C Hartselle 15 926.6897 1,862 2 PDGA #54885 1008.0000 2.9570 275
DGB 2015 Bag Tag Tournament 2015-02-28 C Trussville 14 916.1786 1,052 2 PDGA #33106 986.5000 1.8041 175
EAT SLEEP DISC PRESENTS Number THREE 2015-02-21 C Cullman 7 943.1429 960 2 PDGA #16348 997.5000 2.5510 250
The Jasper Freeze by Halo 2015-02-14 C Jasper 17 922.2424 2,342 2 PDGA #54076 1019.5000 4.1176 350
EAT SLEEP DISC PRESENTS Number TWO 2015-01-31 C Birmingham 11 920.3415 3,240 4 PDGA #16348 973.0000 1.9531 250
EAT SLEEP DISC PRESENTS Number ONE 2015-01-17 C Trussville 18 938.9722 2,380 2 Mike Young 1015.5000 3.6458 350
Halo Disc Sports Presents: Frozen Fairways of Indigo 2015-01-10 C Birmingham 4 958.0000 460 2 PDGA #16348 996.0000 1.5263 145
Greg Carter Memorial 2014 2014-12-27 C Trussville 7 962.2857 810 2 PDGA #34977 1018.0000 2.1910 195
The Frost Bite Open 2014-12-13 C Opelika 5 954.2000 880 2 Kevin McCoy 987.5000 1.5789 210
The Christmas Classic 2014-12-13 C Birmingham 6 929.1667 510 2 Mike Young 976.5000 1.6842 160
40th Annual Alabama State Flying Disc Championship 2014-11-23 B HUNTSVILLE 17 969.4375 2,620 2 Jordan Davidson 1016.5000 3.0973 350
DGB Fall Series Event #3 2014-11-01 C Hoover 3 930.2000 290 2 PDGA #54885 974.5000 0.8108 90
Mango Classic - A 2014-10-12 A Mobile 22 980.1692 22,055 4 Cameron Colglazier 1059.0000 7.4713 1,300
Halo Disc Sports presents Cukorakko 2014-10-05 B Steele 5 922.6667 1,275 3 Mike Young 977.0000 2.9110 425
Showdown in T-Town 2014-09-28 C Tuscaloosa 11 946.5000 1,530 2 Josh Coghill 993.5000 3.2000 320
DGB Fall Series Event #2 2014-09-27 C Birmingham 9 930.2778 850 2 Mike Young 994.0000 1.9231 175
DGB Fall Series Event #1 2014-08-23 C Trussville 12 915.8750 1,150 2 PDGA #54885 978.0000 2.0918 205
An Affair for Sydney Claire 2014-08-16 C Fairview 9 944.3529 1,000 2 Lavone Wolfe 987.5000 1.9149 180
Bamboo Classic 2014-08-09 C Clay 13 939.4615 1,912 2 Joey Lutz 1005.5000 3.1081 345
GRIP-N-RIP Back to School Bash 2014-07-19 C Jasper 6 899.0000 440 2 PDGA #35413 934.0000 1.4362 135
GRIP-N-RIP Back to School Bash 2014-07-19 C Jasper 6 899.0000 440 2 PDGA #59291 934.0000 0.9043 85
2014 Free As A Breeze 2014-07-05 C Huntsville 10 918.1500 0 2 PDGA #59540 962.5000 0.0000 0
EAT SLEEP DISC presents NUMBER 7 The Championship! 2014-06-28 C Birmingham 6 931.2500 780 2 PDGA #32094 1002.0000 2.1978 200
Halo's Battle on the Bay 2014-06-28 C Fairhope 16 957.3750 2,090 2 Matt Orum 1053.0000 3.4239 315
Magic City Open 2014-06-08 B Birmingham 11 955.0606 4,038 3 PDGA #51531 969.6667 3.0726 550
EAT SLEEP DISC presents NUMBER 6 2014-05-31 C Hartselle 11 915.7273 1,012 2 Mike Young 970.5000 1.8367 180
Rocket City Blast 2014-05-25 B Huntsville 14 935.6829 7,170 3 Logan Bowers 1013.3333 4.6084 765
GnR presents Spring Fling 14 2014-05-17 C Jasper 6 918.0833 670 2 PDGA #32600 951.0000 1.6842 160
Alabama Disc Golf Championship 7 + WGE 2014-05-11 A Athens 24 975.6528 15,885 3 Matt Orum 1053.0000 8.9744 1,400
Lake Point Open 2014-05-10 C Heflin 12 952.1905 1,360 2 Andrew Fish 1011.0000 2.5253 250
EAT SLEEP DISC presents NUMBER 5 2014-04-26 C Birmingham 6 927.2500 600 2 PDGA #32600 960.5000 1.5044 170
Halo's Battle at Fairview 2014-04-19 C Fairview 13 936.7308 1,440 2 Joey Lutz 1014.0000 2.8571 260
EAT SLEEP DISC presents NUMBER 4 2014-03-29 C Gadsden 3 913.3333 300 2 Joey Lutz 944.0000 1.3043 150
31st Annual Spring Fling It 2014-03-23 C Florence 8 941.5000 1,320 3 PDGA #42387 990.6667 0.3526 55
Team Catfish presents Alabama Mountain Games Disc Golf Tournament 2014 2014-03-16 B Cleveland 22 975.7937 8,055 3 Josh Childs 1049.3333 4.1143 720
EAT SLEEP DISC presents NUMBER 3 2014-03-01 C Birmingham 6 933.5833 600 2 Mike Young 981.5000 1.6495 160
Cullman's Walk in the Park 2014-02-23 C Cullman 9 962.8333 0 2 PDGA #27669 1010.5000 0.0000 0
Mastin Lake Throwdown 2014-02-22 C Huntsville 4 956.3750 480 2 Lavone Wolfe 973.0000 1.5625 150
EAT SLEEP DISC presents NUMBER 2 2014-02-08 C Huntsville 13 973.8462 1,300 2 PDGA #34977 1017.0000 1.9417 200
The Fairview Classic 2014-01-25 C Fairview 10 956.8000 1,000 2 Jared Neal 992.0000 2.0707 205
EAT SLEEP DISC presents NUMBER 1 2014-01-18 C Birmingham 11 944.2273 1,100 2 PDGA #17661 993.0000 1.9802 200
The Jasper Freeze 2014-01-11 C Jasper 18 948.0000 2,238 2 Will Schusterick 1033.0000 3.8953 335
Greg Carter Memorial 2013-12-28 B Athens 14 954.5714 2,678 2